TimeEST,TemperatureF,Dew PointF,Humidity,Sea Level PressureIn,VisibilityMPH,Wind Direction,Wind SpeedMPH,Gust SpeedMPH,PrecipitationIn,Events,Conditions,WindDirDegrees,DateUTC
12:53 AM,61.0,57.0,87,30.20,10.0,South,5.8,-,N/A,,Overcast,180,2012-11-13 05:53:00
1:53 AM,62.1,57.9,86,30.17,10.0,SSE,6.9,-,0.00,,Overcast,160,2012-11-13 06:53:00
2:15 AM,62.6,57.2,82,30.17,10.0,South,6.9,-,N/A,,Overcast,170,2012-11-13 07:15:00
2:53 AM,63.0,57.9,84,30.13,10.0,South,9.2,-,N/A,,Mostly Cloudy,180,2012-11-13 07:53:00
3:17 AM,62.6,59.0,88,30.14,10.0,South,13.8,20.7,N/A,,Scattered Clouds,190,2012-11-13 08:17:00
3:29 AM,64.4,59.0,83,30.13,10.0,South,15.0,21.9,N/A,,Mostly Cloudy,180,2012-11-13 08:29:00
3:53 AM,64.9,59.0,81,30.11,10.0,South,13.8,24.2,N/A,,Mostly Cloudy,190,2012-11-13 08:53:00
4:53 AM,64.9,59.0,81,30.10,10.0,South,13.8,20.7,N/A,,Scattered Clouds,190,2012-11-13 09:53:00
5:13 AM,66.2,59.0,78,30.12,10.0,South,13.8,19.6,N/A,,Mostly Cloudy,180,2012-11-13 10:13:00
5:53 AM,66.0,60.1,81,30.11,10.0,South,10.4,17.3,N/A,,Overcast,190,2012-11-13 10:53:00
6:53 AM,64.9,59.0,81,30.11,10.0,South,11.5,-,N/A,,Mostly Cloudy,190,2012-11-13 11:53:00
7:12 AM,64.4,59.0,83,30.12,10.0,South,11.5,-,N/A,,Mostly Cloudy,180,2012-11-13 12:12:00
7:22 AM,64.4,59.0,83,30.12,10.0,South,13.8,23.0,N/A,,Mostly Cloudy,180,2012-11-13 12:22:00
7:29 AM,64.4,59.0,83,30.12,10.0,South,12.7,23.0,N/A,,Mostly Cloudy,180,2012-11-13 12:29:00
7:40 AM,59.0,53.6,82,30.16,9.0,NW,15.0,24.2,0.00,Rain,Light Rain,310,2012-11-13 12:40:00
7:53 AM,55.0,50.0,83,30.15,4.0,NW,15.0,25.3,0.03,Rain,Rain,320,2012-11-13 12:53:00
8:00 AM,53.6,50.0,88,30.17,4.0,NW,13.8,-,0.01,Rain,Rain,320,2012-11-13 13:00:00
8:12 AM,53.6,48.2,82,30.17,10.0,NW,8.1,-,0.01,Rain,Light Rain,310,2012-11-13 13:12:00
8:26 AM,53.6,48.2,82,30.18,10.0,WNW,9.2,-,0.01,Rain,Light Rain,300,2012-11-13 13:26:00
8:53 AM,53.1,48.9,86,30.18,10.0,WNW,9.2,-,0.01,Rain,Light Rain,290,2012-11-13 13:53:00
9:53 AM,51.1,46.9,86,30.21,10.0,WNW,9.2,-,0.01,Rain,Light Rain,290,2012-11-13 14:53:00
10:53 AM,50.0,46.0,86,30.21,5.0,NW,6.9,-,0.02,Rain,Light Rain,310,2012-11-13 15:53:00
11:35 AM,50.0,46.4,87,30.20,10.0,NW,3.5,-,0.01,,Overcast,320,2012-11-13 16:35:00
11:45 AM,51.8,46.4,82,30.20,10.0,NW,4.6,-,0.01,,Overcast,310,2012-11-13 16:45:00
11:53 AM,51.1,46.9,86,30.19,9.0,West,4.6,-,0.01,Rain,Light Rain,270,2012-11-13 16:53:00
12:19 PM,50.0,44.6,82,30.20,10.0,WNW,5.8,-,0.00,,Overcast,290,2012-11-13 17:19:00
12:53 PM,50.0,45.0,83,30.19,10.0,West,8.1,-,0.00,,Overcast,280,2012-11-13 17:53:00
1:32 PM,48.2,44.6,87,30.22,4.0,WNW,10.4,21.9,0.02,Rain,Rain,300,2012-11-13 18:32:00
1:41 PM,48.2,42.8,82,30.23,5.0,WNW,12.7,21.9,0.04,Rain,Rain,290,2012-11-13 18:41:00
1:53 PM,48.0,43.0,83,30.21,10.0,WNW,10.4,-,0.04,Rain,Light Rain,300,2012-11-13 18:53:00
2:25 PM,46.4,42.8,87,30.24,6.0,NW,9.2,-,0.03,Rain,Light Rain,310,2012-11-13 19:25:00
2:53 PM,46.0,42.1,86,30.24,10.0,NW,8.1,-,0.04,Rain,Light Rain,310,2012-11-13 19:53:00
3:22 PM,44.6,41.0,87,30.26,9.0,NW,8.1,-,0.02,Rain,Light Rain,310,2012-11-13 20:22:00
3:53 PM,44.1,39.9,85,30.25,10.0,Calm,Calm,-,0.05,Rain,Light Rain,0,2012-11-13 20:53:00
4:45 PM,44.6,39.2,81,30.29,10.0,NW,4.6,-,0.01,Rain,Light Rain,310,2012-11-13 21:45:00
4:53 PM,44.1,39.9,85,30.28,5.0,NW,5.8,-,0.03,Rain,Rain,310,2012-11-13 21:53:00
5:53 PM,44.1,41.0,89,30.30,10.0,NW,4.6,-,0.04,,Overcast,310,2012-11-13 22:53:00
6:53 PM,44.1,37.0,76,30.32,10.0,NW,9.2,-,N/A,,Overcast,310,2012-11-13 23:53:00
7:53 PM,43.0,34.0,71,30.35,10.0,NNW,10.4,-,N/A,,Overcast,330,2012-11-14 00:53:00
8:53 PM,42.1,32.0,67,30.38,10.0,NNW,9.2,-,N/A,,Overcast,330,2012-11-14 01:53:00
9:25 PM,42.8,30.2,61,30.39,10.0,NNW,9.2,-,N/A,,Overcast,340,2012-11-14 02:25:00
9:53 PM,41.0,30.9,67,30.39,10.0,NNW,9.2,-,N/A,,Overcast,340,2012-11-14 02:53:00
10:05 PM,41.0,30.2,65,30.40,10.0,NNW,9.2,-,N/A,,Overcast,340,2012-11-14 03:05:00
10:18 PM,41.0,30.2,65,30.40,10.0,NNW,9.2,-,N/A,,Overcast,340,2012-11-14 03:18:00
10:53 PM,41.0,30.0,65,30.39,10.0,NNW,6.9,-,N/A,,Overcast,340,2012-11-14 03:53:00
11:15 PM,41.0,30.2,65,30.40,10.0,NNW,8.1,-,N/A,,Overcast,340,2012-11-14 04:15:00
11:53 PM,41.0,30.9,67,30.40,10.0,NNW,6.9,-,N/A,,Overcast,340,2012-11-14 04:53:00